Time;durP1;ratioP1;P1;durP2;ratioP2;P2;SDS_P1;SDS_P2;PMS_P1;PMS_P2;Temp;Humidity;BMP_temperature;BMP_pressure;BME280_temperature;BME280_humidity;BME280_pressure;Samples;Min_cycle;Max_cycle;Signal;HPM_P1;HPM_P2
2021/12/05 00:22:47;;;;;;;17.58;6.55;;;3.60;99.90;;;;;;5091820;28;20063;-86
2021/12/05 00:25:20;;;;;;;11.35;5.25;;;3.80;99.90;;;;;;5078962;28;20086;-75
2021/12/05 00:27:52;;;;;;;11.40;4.97;;;3.80;99.90;;;;;;5089414;28;20037;-86
2021/12/05 00:41:42;;;;;;;22.13;8.07;;;3.70;99.90;;;;;;5083031;28;20410;-88
2021/12/05 01:03:42;;;;;;;13.35;4.40;;;4.00;99.90;;;;;;5092319;28;20372;-87
2021/12/05 01:16:42;;;;;;;11.95;4.65;;;3.90;99.90;;;;;;5087455;28;20039;-87
2021/12/05 01:19:10;;;;;;;16.25;6.65;;;3.80;99.90;;;;;;5058355;28;20045;-87
2021/12/05 01:21:38;;;;;;;13.70;4.45;;;3.80;99.90;;;;;;5088723;28;20068;-86
2021/12/05 01:24:17;;;;;;;11.23;4.72;;;3.90;99.90;;;;;;5084876;28;20025;-87
2021/12/05 01:26:53;;;;;;;19.65;5.18;;;3.80;99.90;;;;;;5064050;28;20055;-83
2021/12/05 01:37:21;;;;;;;10.13;6.20;;;3.90;99.90;;;;;;5089288;28;20036;-86
2021/12/05 01:46:02;;;;;;;12.90;6.55;;;3.90;99.90;;;;;;5084881;28;20044;-87
2021/12/05 01:56:12;;;;;;;12.82;6.82;;;4.00;99.90;;;;;;5086618;28;20075;-86
2021/12/05 01:59:04;;;;;;;13.48;6.55;;;4.00;99.90;;;;;;5075184;28;20055;-85
2021/12/05 02:01:53;;;;;;;10.82;4.90;;;4.10;99.90;;;;;;5073082;28;20438;-86
2021/12/05 02:15:22;;;;;;;16.63;7.38;;;4.10;99.90;;;;;;5084104;28;20441;-86
2021/12/05 02:32:19;;;;;;;14.57;5.63;;;4.10;99.90;;;;;;5076044;28;20052;-83
2021/12/05 02:34:48;;;;;;;14.73;5.72;;;4.10;99.90;;;;;;5090584;28;20060;-84
2021/12/05 02:37:31;;;;;;;23.15;6.50;;;4.10;99.90;;;;;;5098600;28;20062;-73
2021/12/05 02:42:39;;;;;;;11.15;4.80;;;4.00;99.90;;;;;;5081705;28;20055;-85
2021/12/05 02:45:09;;;;;;;20.30;8.70;;;3.90;99.90;;;;;;5108853;28;20032;-79
2021/12/05 02:47:36;;;;;;;;;;;4.00;99.90;;;;;;5093931;28;20047;-85
2021/12/05 02:50:08;;;;;;;14.30;6.90;;;3.90;99.90;;;;;;5087682;28;19921;-75
2021/12/05 02:52:38;;;;;;;19.55;7.28;;;3.90;99.90;;;;;;5089351;28;20036;-85
2021/12/05 02:55:13;;;;;;;20.98;6.82;;;4.00;99.90;;;;;;5072746;28;20068;-83
2021/12/05 03:00:20;;;;;;;;;;;4.00;99.90;;;;;;5093091;28;20028;-83
2021/12/05 03:02:48;;;;;;;12.18;6.35;;;3.90;99.90;;;;;;5105294;28;19916;-83
2021/12/05 03:05:19;;;;;;;16.23;7.45;;;3.70;99.90;;;;;;5099969;28;20083;-77
2021/12/05 03:07:47;;;;;;;14.70;6.45;;;3.90;99.90;;;;;;5087275;28;20044;-84
2021/12/05 03:10:16;;;;;;;13.27;6.68;;;3.70;99.90;;;;;;5071023;28;20068;-79
2021/12/05 03:12:43;;;;;;;16.50;7.53;;;3.70;99.90;;;;;;5076591;28;20052;-86
2021/12/05 03:15:14;;;;;;;15.45;8.30;;;3.70;99.90;;;;;;5095434;28;20123;-83
2021/12/05 03:17:41;;;;;;;20.20;7.80;;;3.70;99.90;;;;;;5100969;28;20124;-85
2021/12/05 03:20:08;;;;;;;18.08;7.47;;;3.60;99.90;;;;;;5096661;28;20031;-84
2021/12/05 03:22:34;;;;;;;14.95;6.65;;;3.80;99.90;;;;;;5107586;28;20082;-84
2021/12/05 03:25:00;;;;;;;34.00;8.35;;;3.70;99.90;;;;;;5104165;28;20028;-85
2021/12/05 03:27:28;;;;;;;20.52;8.40;;;3.70;99.90;;;;;;5090563;28;20056;-84
2021/12/05 03:29:54;;;;;;;22.40;7.85;;;3.80;99.90;;;;;;5102671;28;20036;-73
2021/12/05 03:32:20;;;;;;;17.05;8.13;;;3.70;99.90;;;;;;5111311;28;20040;-86
2021/12/05 03:34:45;;;;;;;28.15;12.18;;;3.70;99.90;;;;;;5050806;28;20047;-84
2021/12/05 03:37:11;;;;;;;17.70;9.50;;;3.70;99.90;;;;;;5100034;28;20051;-83
2021/12/05 03:39:37;;;;;;;18.40;8.30;;;3.60;99.90;;;;;;5100844;28;20055;-86
2021/12/05 03:42:04;;;;;;;34.88;9.30;;;3.80;99.90;;;;;;5098074;28;20097;-78
2021/12/05 03:44:37;;;;;;;19.60;7.78;;;3.80;99.90;;;;;;5085121;28;20058;-84
2021/12/05 03:47:05;;;;;;;19.13;9.35;;;3.80;99.90;;;;;;5064960;28;21039;-86
2021/12/05 03:49:32;;;;;;;18.88;9.38;;;3.70;99.90;;;;;;5079370;28;20081;-86
2021/12/05 03:52:14;;;;;;;20.00;8.65;;;3.60;99.90;;;;;;5095505;28;20126;-85
2021/12/05 03:54:41;;;;;;;26.98;10.57;;;3.70;99.90;;;;;;5072996;28;20040;-86
2021/12/05 03:57:07;;;;;;;24.02;10.27;;;3.70;99.90;;;;;;5057016;28;20576;-86
2021/12/05 03:59:33;;;;;;;26.70;11.02;;;3.70;99.90;;;;;;5076570;28;20485;-86
2021/12/05 04:02:01;;;;;;;21.95;10.00;;;3.60;99.90;;;;;;5090962;28;20055;-84
2021/12/05 04:04:27;;;;;;;20.42;11.52;;;3.60;99.90;;;;;;5093427;28;20084;-85
2021/12/05 04:06:53;;;;;;;17.70;10.40;;;3.50;99.90;;;;;;5087819;28;20048;-85
2021/12/05 04:09:19;;;;;;;29.52;11.95;;;3.60;99.90;;;;;;5065755;28;20485;-85
2021/12/05 04:11:56;;;;;;;20.70;12.20;;;3.60;99.90;;;;;;5087648;28;20075;-86
2021/12/05 04:14:24;;;;;;;34.38;14.23;;;3.50;99.90;;;;;;5092310;28;20056;-86
2021/12/05 04:16:50;;;;;;;22.50;9.85;;;3.40;99.90;;;;;;5085611;28;20039;-85
2021/12/05 04:19:16;;;;;;;24.83;11.23;;;3.50;99.90;;;;;;5071976;28;20044;-84
2021/12/05 04:21:41;;;;;;;24.85;12.63;;;3.60;99.90;;;;;;5072040;28;20119;-86
2021/12/05 04:24:10;;;;;;;25.15;12.77;;;3.60;99.90;;;;;;5092192;28;20036;-86
2021/12/05 04:26:36;;;;;;;26.75;12.10;;;3.50;99.90;;;;;;5079198;28;20135;-85
2021/12/05 04:29:04;;;;;;;23.10;10.45;;;3.50;99.90;;;;;;5058520;28;20032;-79
2021/12/05 04:31:30;;;;;;;26.92;11.85;;;3.50;99.90;;;;;;5094982;28;20044;-85
2021/12/05 04:33:56;;;;;;;22.17;12.25;;;3.40;99.90;;;;;;5101656;28;20047;-84
2021/12/05 04:36:22;;;;;;;30.70;12.38;;;3.40;99.90;;;;;;5098379;28;20099;-85
2021/12/05 04:38:48;;;;;;;33.20;13.70;;;3.30;99.90;;;;;;5094825;28;20062;-87
2021/12/05 04:41:14;;;;;;;31.02;11.80;;;3.30;99.90;;;;;;5084341;28;20071;-77
2021/12/05 04:43:40;;;;;;;27.58;13.55;;;3.40;99.90;;;;;;5073729;28;20065;-86
2021/12/05 04:46:10;;;;;;;29.25;13.13;;;3.40;99.90;;;;;;5083012;28;20135;-84
2021/12/05 04:48:36;;;;;;;28.15;15.02;;;3.50;99.90;;;;;;5056598;28;20386;-86
2021/12/05 04:51:02;;;;;;;26.10;11.43;;;3.40;99.90;;;;;;5084257;28;20125;-78
2021/12/05 04:53:28;;;;;;;34.15;12.15;;;3.40;99.90;;;;;;5074501;28;20481;-87
2021/12/05 04:55:56;;;;;;;35.42;14.93;;;3.50;99.90;;;;;;5086457;28;20086;-83
2021/12/05 04:58:23;;;;;;;33.83;13.35;;;3.30;99.90;;;;;;5085260;28;20379;-85
2021/12/05 05:00:51;;;;;;;21.73;10.93;;;3.30;99.90;;;;;;5078316;28;20032;-84
2021/12/05 05:03:17;;;;;;;23.35;12.48;;;3.40;99.90;;;;;;5072413;28;20102;-86
2021/12/05 05:05:51;;;;;;;26.02;12.35;;;3.20;99.90;;;;;;5078994;28;20119;-83
2021/12/05 05:08:18;;;;;;;27.67;11.98;;;3.40;99.90;;;;;;5086564;28;20140;-86
2021/12/05 05:10:44;;;;;;;25.33;10.60;;;3.30;99.90;;;;;;5074906;28;20131;-85
2021/12/05 05:13:10;;;;;;;20.60;11.85;;;3.20;99.90;;;;;;5080216;28;20055;-85
2021/12/05 05:15:35;;;;;;;25.58;12.18;;;3.30;99.90;;;;;;5088042;28;20418;-86
2021/12/05 05:18:03;;;;;;;34.95;13.00;;;3.10;99.90;;;;;;5090972;28;20037;-84
2021/12/05 05:28:31;;;;;;;25.10;10.50;;;3.10;99.90;;;;;;5091104;28;20051;-85
2021/12/05 05:42:06;;;;;;;24.60;9.93;;;2.90;99.90;;;;;;5078429;28;20318;-86
2021/12/05 05:52:13;;;;;;;27.33;11.23;;;2.90;99.90;;;;;;5080370;28;20048;-83
2021/12/05 05:54:39;;;;;;;25.73;12.38;;;2.90;99.90;;;;;;5101259;28;20051;-85
2021/12/05 05:57:24;;;;;;;26.38;11.43;;;2.90;99.90;;;;;;5100876;28;20511;-87
2021/12/05 06:00:09;;;;;;;22.52;9.68;;;3.00;99.90;;;;;;5078862;28;20080;-86
2021/12/05 06:05:19;;;;;;;22.83;11.48;;;3.00;99.90;;;;;;5075985;28;20040;-87
2021/12/05 06:07:46;;;;;;;26.85;10.27;;;3.00;99.90;;;;;;5092104;28;20106;-89
2021/12/05 06:10:23;;;;;;;22.08;11.05;;;3.00;99.90;;;;;;5060348;28;20040;-88
2021/12/05 06:12:51;;;;;;;22.52;10.82;;;2.90;99.90;;;;;;5052997;28;20139;-87
2021/12/05 06:15:19;;;;;;;22.10;10.65;;;3.00;99.90;;;;;;5078033;28;20109;-86
2021/12/05 06:17:45;;;;;;;19.50;10.73;;;2.90;99.90;;;;;;5083542;28;20036;-88
2021/12/05 06:20:15;;;;;;;19.95;9.48;;;2.90;99.90;;;;;;5071012;28;20044;-88
2021/12/05 06:22:41;;;;;;;24.65;12.88;;;3.00;99.90;;;;;;5072614;28;20040;-86
2021/12/05 06:25:11;;;;;;;28.48;9.82;;;2.90;99.90;;;;;;5090038;28;20044;-88
2021/12/05 06:27:37;;;;;;;22.98;11.57;;;3.00;99.90;;;;;;5073388;28;20040;-87
2021/12/05 06:30:16;;;;;;;29.80;10.70;;;2.90;99.90;;;;;;5081780;28;20045;-87
2021/12/05 06:39:19;;;;;;;26.77;9.40;;;3.00;99.90;;;;;;5086810;28;20052;-90
2021/12/05 06:41:07;;;;;;;22.50;9.70;;;2.90;99.90;;;;;;5065070;28;20627;-87
2021/12/05 06:46:32;;;;;;;28.00;9.35;;;2.90;99.90;;;;;;5075335;28;20093;-88
2021/12/05 06:48:58;;;;;;;20.10;10.80;;;2.90;99.90;;;;;;5084167;28;20051;-86
2021/12/05 06:51:27;;;;;;;25.45;10.07;;;2.90;99.90;;;;;;5069610;28;20039;-88
2021/12/05 06:53:55;;;;;;;15.60;8.75;;;2.80;99.90;;;;;;5096734;28;20036;-89
2021/12/05 06:56:21;;;;;;;41.10;11.60;;;2.90;99.90;;;;;;5077839;28;20051;-87
2021/12/05 06:58:48;;;;;;;28.02;8.30;;;3.00;99.90;;;;;;5083626;28;20044;-90
2021/12/05 07:01:15;;;;;;;15.90;8.30;;;2.90;99.90;;;;;;5064927;28;20055;-73
2021/12/05 07:03:44;;;;;;;25.23;10.15;;;2.90;99.90;;;;;;5084835;28;20055;-87
2021/12/05 07:06:12;;;;;;;24.55;10.20;;;2.90;99.90;;;;;;5090684;28;20043;-87
2021/12/05 07:08:42;;;;;;;24.58;8.68;;;3.00;99.90;;;;;;5094322;28;20101;-86
2021/12/05 07:21:26;;;;;;;26.92;8.57;;;3.00;99.90;;;;;;5077928;28;20483;-85
2021/12/05 07:24:03;;;;;;;26.40;9.57;;;3.10;99.90;;;;;;5088053;28;20040;-85
2021/12/05 07:42:41;;;;;;;24.98;9.95;;;3.00;99.90;;;;;;5072715;28;20127;-84
2021/12/05 07:45:08;;;;;;;21.02;6.82;;;3.00;99.90;;;;;;5056092;28;20862;-83
2021/12/05 07:47:36;;;;;;;29.40;9.55;;;3.00;99.90;;;;;;5072808;28;20040;-84
2021/12/05 07:50:12;;;;;;;20.00;7.88;;;2.90;99.90;;;;;;5074324;28;20564;-84
2021/12/05 07:52:45;;;;;;;21.60;7.72;;;3.10;99.90;;;;;;5072791;28;20547;-83
2021/12/05 07:55:27;;;;;;;23.65;9.02;;;2.90;99.90;;;;;;5048226;28;20085;-83
2021/12/05 08:00:32;;;;;;;26.60;9.05;;;3.10;99.90;;;;;;5071160;28;20417;-83
2021/12/05 08:16:44;;;;;;;20.00;8.50;;;3.20;99.90;;;;;;5087008;28;20060;-81
2021/12/05 08:19:10;;;;;;;16.98;9.02;;;3.30;99.90;;;;;;5060904;28;20436;-82
2021/12/05 08:21:35;;;;;;;25.25;8.70;;;3.20;99.90;;;;;;5070287;28;20041;-82
2021/12/05 08:24:01;;;;;;;23.45;8.77;;;3.30;99.90;;;;;;5079436;28;20450;-83
2021/12/05 08:26:32;;;;;;;22.67;9.63;;;3.30;99.90;;;;;;5079655;28;20151;-82
2021/12/05 08:29:22;;;;;;;18.73;8.13;;;3.30;99.90;;;;;;5063560;28;20119;-81
2021/12/05 09:20:44;;;;;;;20.70;11.73;;;3.70;99.90;;;;;;5055406;28;20044;-76
2021/12/05 09:28:53;;;;;;;24.42;11.23;;;3.70;99.90;;;;;;5088682;28;20510;-83
2021/12/05 10:15:23;;;;;;;34.97;11.95;;;4.20;99.90;;;;;;5055046;28;20060;-87
2021/12/05 10:35:38;;;;;;;22.95;9.77;;;4.30;99.90;;;;;;5042140;28;20052;-83
2021/12/05 10:38:11;;;;;;;20.38;13.57;;;4.20;99.90;;;;;;5058724;28;20040;-84
2021/12/05 10:40:53;;;;;;;22.73;12.73;;;4.40;99.90;;;;;;5036194;28;20041;-85
2021/12/05 10:43:23;;;;;;;15.88;10.43;;;4.30;99.90;;;;;;5043381;28;20049;-86
2021/12/05 10:45:55;;;;;;;16.23;9.15;;;4.20;99.90;;;;;;5065066;28;20037;-85
2021/12/05 10:48:23;;;;;;;20.50;11.82;;;4.30;99.90;;;;;;5022026;28;20075;-86
2021/12/05 10:50:53;;;;;;;19.88;10.40;;;4.30;99.90;;;;;;5055609;28;20102;-86
2021/12/05 10:53:48;;;;;;;25.42;12.07;;;4.30;99.90;;;;;;5059712;28;20044;-86
2021/12/05 10:56:23;;;;;;;18.13;11.52;;;4.20;99.90;;;;;;5054812;28;20056;-85
2021/12/05 10:59:08;;;;;;;20.80;11.40;;;4.20;99.90;;;;;;5049286;28;20083;-89
2021/12/05 11:01:45;;;;;;;21.75;10.27;;;4.20;99.90;;;;;;5039617;28;20052;-87
2021/12/05 11:04:21;;;;;;;24.02;11.27;;;4.20;99.90;;;;;;5065347;28;20040;-86
2021/12/05 11:06:55;;;;;;;22.85;10.02;;;4.20;99.90;;;;;;5064807;28;20056;-86
2021/12/05 11:09:27;;;;;;;25.08;11.10;;;4.20;99.90;;;;;;5068179;28;20478;-87
2021/12/05 11:12:00;;;;;;;19.77;9.48;;;4.30;99.90;;;;;;5057840;28;20102;-86
2021/12/05 11:14:30;;;;;;;19.20;10.43;;;4.30;99.90;;;;;;5050187;28;20067;-87
2021/12/05 11:17:03;;;;;;;19.17;9.45;;;4.30;99.90;;;;;;5084564;28;20529;-87
2021/12/05 11:19:34;;;;;;;24.13;9.80;;;4.30;99.90;;;;;;5083368;28;20044;-87
2021/12/05 11:22:21;;;;;;;19.77;9.93;;;4.30;99.90;;;;;;5087921;28;20052;-87
2021/12/05 11:24:57;;;;;;;16.98;10.18;;;4.40;99.90;;;;;;5050703;28;20072;-87
2021/12/05 11:27:35;;;;;;;28.25;10.88;;;4.20;99.90;;;;;;5070620;28;20401;-87
2021/12/05 11:30:20;;;;;;;22.95;12.18;;;4.30;99.90;;;;;;5069012;28;20432;-87
2021/12/05 11:33:02;;;;;;;18.13;10.30;;;4.30;99.90;;;;;;5069332;28;20048;-86
2021/12/05 11:35:39;;;;;;;14.07;10.55;;;4.40;99.90;;;;;;5071730;28;20045;-87
2021/12/05 11:38:18;;;;;;;17.75;10.88;;;4.30;99.90;;;;;;5055089;28;20056;-87
2021/12/05 11:40:54;;;;;;;18.63;9.80;;;4.30;99.90;;;;;;5090826;28;20048;-86
2021/12/05 11:43:31;;;;;;;19.25;10.88;;;4.40;99.90;;;;;;5091605;28;20119;-86
2021/12/05 11:46:08;;;;;;;19.63;9.50;;;4.40;99.90;;;;;;5073130;28;20048;-87
2021/12/05 11:48:41;;;;;;;18.98;9.05;;;4.40;99.90;;;;;;5073124;28;20439;-86
2021/12/05 11:51:40;;;;;;;13.23;9.13;;;4.40;99.90;;;;;;5092055;28;20047;-85
2021/12/05 11:54:17;;;;;;;17.90;9.68;;;4.50;99.90;;;;;;5074279;28;20044;-86
2021/12/05 11:56:50;;;;;;;36.80;9.18;;;4.50;99.90;;;;;;5068283;28;20185;-76
2021/12/05 11:59:38;;;;;;;15.23;9.60;;;4.40;99.90;;;;;;5079526;28;20040;-87
2021/12/05 12:02:14;;;;;;;13.70;8.18;;;4.40;99.90;;;;;;5074935;28;20047;-87
2021/12/05 12:05:02;;;;;;;22.52;9.70;;;4.40;99.90;;;;;;5074987;28;20096;-84
2021/12/05 12:07:28;;;;;;;28.27;8.45;;;4.40;99.90;;;;;;5073504;28;20049;-85
2021/12/05 12:10:10;;;;;;;14.27;8.15;;;4.40;99.90;;;;;;5055943;28;20056;-80
2021/12/05 12:12:41;;;;;;;16.67;9.82;;;4.60;99.90;;;;;;5072055;28;20075;-86
2021/12/05 12:15:08;;;;;;;26.42;9.20;;;4.50;99.90;;;;;;5089836;28;20040;-86
2021/12/05 12:17:34;;;;;;;11.77;8.13;;;4.50;99.90;;;;;;5073907;28;20036;-87
2021/12/05 12:20:07;;;;;;;16.08;9.13;;;4.50;99.90;;;;;;5107951;28;20018;-85
2021/12/05 12:22:32;;;;;;;20.23;10.63;;;4.50;99.90;;;;;;5094485;28;20502;-87
2021/12/05 12:25:03;;;;;;;14.65;10.35;;;4.50;99.90;;;;;;5091067;28;20059;-86
2021/12/05 12:27:28;;;;;;;16.00;8.65;;;4.70;99.90;;;;;;5071358;28;20039;-86
2021/12/05 12:29:57;;;;;;;26.85;10.00;;;4.60;99.90;;;;;;5071762;28;20043;-86
2021/12/05 12:32:29;;;;;;;15.57;8.45;;;4.60;99.90;;;;;;5071518;28;20048;-86
2021/12/05 12:35:08;;;;;;;14.70;8.23;;;4.60;99.90;;;;;;5072355;28;20398;-87
2021/12/05 12:37:54;;;;;;;16.52;8.85;;;4.50;99.90;;;;;;5091700;28;20163;-86
2021/12/05 12:40:36;;;;;;;14.35;9.02;;;4.60;99.90;;;;;;5087448;28;20040;-86
2021/12/05 12:43:04;;;;;;;18.75;8.52;;;4.70;99.90;;;;;;5078454;28;20570;-87
2021/12/05 12:45:36;;;;;;;20.55;9.00;;;4.70;99.90;;;;;;5082350;28;20041;-84
2021/12/05 12:48:03;;;;;;;27.38;8.10;;;4.70;99.90;;;;;;5082645;28;20059;-86
2021/12/05 12:50:54;;;;;;;12.57;8.43;;;4.70;99.90;;;;;;5069151;28;20048;-88
2021/12/05 12:53:37;;;;;;;19.77;8.90;;;4.80;99.90;;;;;;5084320;28;20430;-82
2021/12/05 12:56:18;;;;;;;14.48;8.25;;;4.90;99.90;;;;;;5061586;28;20105;-85
2021/12/05 12:58:50;;;;;;;16.13;7.85;;;4.90;99.90;;;;;;5066684;28;20489;-82
2021/12/05 13:01:39;;;;;;;11.73;6.47;;;4.90;99.90;;;;;;5088289;28;20509;-82
2021/12/05 13:10:02;;;;;;;14.43;6.90;;;5.10;99.90;;;;;;5077392;28;20052;-82
2021/12/05 13:12:40;;;;;;;18.13;7.45;;;5.10;99.90;;;;;;5082762;28;20409;-82
2021/12/05 13:15:23;;;;;;;13.93;6.60;;;5.00;99.90;;;;;;5095654;28;20048;-81
2021/12/05 13:17:57;;;;;;;13.80;8.35;;;5.10;99.90;;;;;;5087772;28;20051;-82
2021/12/05 13:20:52;;;;;;;21.02;9.90;;;5.10;99.90;;;;;;5072531;28;20044;-85
2021/12/05 13:23:33;;;;;;;18.00;8.88;;;5.10;99.90;;;;;;5069742;28;20056;-83
2021/12/05 13:26:23;;;;;;;12.20;5.90;;;5.20;99.90;;;;;;5080780;28;20481;-84
2021/12/05 13:28:54;;;;;;;14.35;8.25;;;5.10;99.90;;;;;;5088719;28;20062;-84
2021/12/05 13:31:32;;;;;;;14.25;8.05;;;5.10;99.90;;;;;;5071218;28;20100;-85
2021/12/05 13:34:16;;;;;;;13.82;7.97;;;5.10;99.90;;;;;;5052702;28;20119;-83
2021/12/05 13:36:45;;;;;;;16.55;8.93;;;5.10;99.90;;;;;;5073682;28;20136;-82
2021/12/05 13:39:39;;;;;;;11.93;8.25;;;5.10;99.90;;;;;;5084275;28;20050;-83
2021/12/05 13:42:22;;;;;;;13.05;7.30;;;5.10;99.90;;;;;;5061009;28;20127;-84
2021/12/05 13:44:59;;;;;;;11.43;7.32;;;5.10;99.90;;;;;;5069079;28;20101;-83
2021/12/05 13:47:37;;;;;;;15.45;6.75;;;5.00;99.90;;;;;;5088378;28;20089;-81
2021/12/05 13:50:18;;;;;;;15.65;6.95;;;5.00;99.90;;;;;;5089529;28;20052;-83
2021/12/05 13:52:49;;;;;;;15.93;7.18;;;5.00;99.90;;;;;;5087870;28;20126;-82
2021/12/05 13:55:42;;;;;;;18.85;7.47;;;5.00;99.90;;;;;;5083450;28;20136;-76
2021/12/05 13:58:29;;;;;;;15.40;7.75;;;5.10;99.90;;;;;;5068766;28;20118;-82
2021/12/05 14:01:19;;;;;;;15.40;6.97;;;5.00;99.90;;;;;;5083595;28;20532;-81
2021/12/05 14:03:58;;;;;;;11.30;6.93;;;5.10;99.90;;;;;;5082164;28;20047;-81
2021/12/05 14:06:49;;;;;;;10.43;6.53;;;5.10;99.90;;;;;;5071868;28;20039;-82
2021/12/05 14:09:17;;;;;;;12.00;7.13;;;5.10;99.90;;;;;;5068901;28;20397;-78
2021/12/05 14:11:48;;;;;;;11.48;6.70;;;5.10;99.90;;;;;;5045846;28;20056;-84
2021/12/05 14:14:18;;;;;;;9.95;6.53;;;5.00;99.90;;;;;;5068158;28;20430;-84
2021/12/05 14:16:46;;;;;;;12.15;7.72;;;5.10;99.90;;;;;;5068088;28;20047;-85
2021/12/05 14:19:15;;;;;;;16.90;7.53;;;5.10;99.90;;;;;;5067350;28;20078;-85
2021/12/05 14:21:43;;;;;;;12.95;6.68;;;5.10;99.90;;;;;;5070112;28;20457;-84
2021/12/05 14:24:11;;;;;;;10.98;7.45;;;5.00;99.90;;;;;;5067332;28;20040;-83
2021/12/05 14:26:39;;;;;;;14.52;8.38;;;5.00;99.90;;;;;;5052795;28;20099;-82
2021/12/05 14:29:14;;;;;;;12.57;9.15;;;5.10;99.90;;;;;;5062608;28;20053;-82
2021/12/05 14:31:46;;;;;;;13.32;9.18;;;5.10;99.90;;;;;;5070024;28;20399;-82
2021/12/05 14:34:13;;;;;;;11.35;7.18;;;5.00;99.90;;;;;;5073986;28;20048;-83
2021/12/05 14:36:44;;;;;;;18.88;10.30;;;4.90;99.90;;;;;;5072421;28;20109;-82
2021/12/05 14:39:11;;;;;;;21.30;10.10;;;5.00;99.90;;;;;;5075138;28;20163;-80
2021/12/05 14:41:39;;;;;;;14.70;9.20;;;4.90;99.90;;;;;;5073479;28;20052;-85
2021/12/05 14:44:05;;;;;;;24.25;10.15;;;5.00;99.90;;;;;;5072986;28;20402;-84
2021/12/05 14:46:31;;;;;;;10.82;7.97;;;4.90;99.90;;;;;;5070886;28;20072;-84
2021/12/05 14:49:02;;;;;;;11.57;7.95;;;5.00;99.90;;;;;;5070933;28;20045;-85
2021/12/05 14:51:33;;;;;;;13.70;9.80;;;4.80;99.90;;;;;;5063296;28;20036;-85
2021/12/05 14:53:59;;;;;;;16.67;9.52;;;4.90;99.90;;;;;;5065182;28;20041;-85
2021/12/05 14:56:33;;;;;;;18.00;8.75;;;4.90;99.90;;;;;;5062312;28;20448;-85
2021/12/05 14:59:09;;;;;;;12.40;7.53;;;4.80;99.90;;;;;;5065887;28;20522;-86
2021/12/05 15:01:40;;;;;;;14.63;10.20;;;4.80;99.90;;;;;;5058794;28;20047;-86
2021/12/05 15:04:09;;;;;;;14.35;8.77;;;4.90;99.90;;;;;;5070193;28;20075;-85
2021/12/05 15:06:42;;;;;;;19.45;8.13;;;4.90;99.90;;;;;;5076824;28;20044;-85
2021/12/05 15:09:22;;;;;;;13.27;9.45;;;4.80;99.90;;;;;;5074422;28;20041;-83
2021/12/05 15:12:00;;;;;;;18.27;9.40;;;4.90;99.90;;;;;;5084558;28;20100;-83
2021/12/05 15:14:26;;;;;;;15.25;8.57;;;4.90;99.90;;;;;;5062253;28;20044;-86
2021/12/05 15:17:06;;;;;;;9.55;7.65;;;4.90;99.90;;;;;;5071417;28;20032;-86
2021/12/05 15:19:32;;;;;;;14.32;9.20;;;4.90;99.90;;;;;;5092828;28;20100;-86
2021/12/05 15:21:59;;;;;;;12.80;9.82;;;4.80;99.90;;;;;;5079195;28;20115;-80
2021/12/05 15:24:27;;;;;;;15.40;9.07;;;4.90;99.90;;;;;;5085396;28;20083;-88
2021/12/05 15:26:55;;;;;;;13.95;8.52;;;4.80;99.90;;;;;;5067203;28;20398;-86
2021/12/05 15:29:22;;;;;;;12.25;9.52;;;4.80;99.90;;;;;;5057649;28;20138;-86
2021/12/05 15:31:47;;;;;;;19.10;9.43;;;4.80;99.90;;;;;;5066050;28;20051;-89
2021/12/05 15:34:34;;;;;;;18.88;11.18;;;4.80;99.90;;;;;;5074475;28;20081;-85
2021/12/05 15:37:10;;;;;;;14.68;9.68;;;4.80;99.90;;;;;;5073622;28;20044;-87
2021/12/05 15:39:39;;;;;;;20.27;11.07;;;4.80;99.90;;;;;;5074168;28;20047;-88
2021/12/05 15:42:34;;;;;;;20.25;13.10;;;4.80;99.90;;;;;;5091983;28;20036;-88
2021/12/05 15:45:04;;;;;;;18.88;8.13;;;4.80;99.90;;;;;;5055969;28;20055;-88
2021/12/05 15:47:32;;;;;;;23.20;9.18;;;4.70;99.90;;;;;;5073009;28;20450;-85
2021/12/05 15:50:07;;;;;;;15.27;9.02;;;4.70;99.90;;;;;;5084523;28;20064;-88
2021/12/05 15:52:35;;;;;;;13.55;9.88;;;4.70;99.90;;;;;;5066743;28;20063;-86
2021/12/05 15:55:04;;;;;;;15.60;8.05;;;4.80;99.90;;;;;;5081065;28;20036;-86
2021/12/05 15:57:36;;;;;;;12.15;9.40;;;4.80;99.90;;;;;;5070453;28;20086;-85
2021/12/05 16:00:14;;;;;;;14.68;8.85;;;4.60;99.90;;;;;;5081628;28;20048;-78
2021/12/05 16:02:41;;;;;;;17.98;11.55;;;4.60;99.90;;;;;;5086896;28;20040;-87
2021/12/05 16:05:21;;;;;;;21.00;12.30;;;4.60;99.90;;;;;;5081584;28;20040;-87
2021/12/05 16:07:49;;;;;;;20.35;11.50;;;4.70;99.90;;;;;;5105580;28;20102;-85
2021/12/05 16:10:19;;;;;;;16.90;8.57;;;4.70;99.90;;;;;;5096208;28;20032;-76
2021/12/05 16:12:46;;;;;;;14.13;10.55;;;4.70;99.90;;;;;;5067439;28;20134;-85
2021/12/05 16:15:13;;;;;;;14.07;9.88;;;4.70;99.90;;;;;;5082356;28;20374;-84
2021/12/05 16:17:41;;;;;;;14.73;10.55;;;4.60;99.90;;;;;;5094590;28;20421;-85
2021/12/05 16:20:28;;;;;;;20.23;11.25;;;4.60;99.90;;;;;;5078652;28;20045;-84
2021/12/05 16:23:18;;;;;;;17.50;11.00;;;4.60;99.90;;;;;;5086557;28;20482;-78
2021/12/05 16:25:54;;;;;;;;;;;4.60;99.90;;;;;;5056099;28;20060;-84
2021/12/05 16:28:27;;;;;;;14.15;10.07;;;4.50;99.90;;;;;;5069005;28;20015;-86
2021/12/05 16:31:00;;;;;;;18.52;13.20;;;4.60;99.90;;;;;;5108227;28;20504;-85
2021/12/05 16:33:29;;;;;;;17.20;11.40;;;4.60;99.90;;;;;;5091066;28;20044;-86
2021/12/05 16:35:55;;;;;;;20.73;13.20;;;4.50;99.90;;;;;;5091794;28;20051;-83
2021/12/05 16:38:29;;;;;;;21.58;12.20;;;4.60;99.90;;;;;;5086966;28;20100;-85
2021/12/05 16:41:28;;;;;;;24.98;13.77;;;4.50;99.90;;;;;;5085048;28;20131;-81
2021/12/05 16:43:58;;;;;;;23.15;13.15;;;4.60;99.90;;;;;;5085856;28;20047;-75
2021/12/05 16:46:32;;;;;;;;;;;4.60;99.90;;;;;;5076867;28;20432;-84
2021/12/05 16:49:01;;;;;;;21.20;12.30;;;4.50;99.90;;;;;;5082728;28;19943;-84
2021/12/05 16:52:03;;;;;;;19.92;12.20;;;4.60;99.90;;;;;;5078579;28;20040;-84
2021/12/05 16:54:33;;;;;;;23.23;14.10;;;4.60;99.90;;;;;;5052032;28;20056;-83
2021/12/05 16:57:10;;;;;;;;;;;4.60;99.90;;;;;;5083423;28;20044;-76
2021/12/05 16:59:43;;;;;;;22.45;12.77;;;4.50;99.90;;;;;;5084556;28;19920;-84
2021/12/05 17:02:30;;;;;;;26.13;15.15;;;4.60;99.90;;;;;;5074909;28;20063;-86
2021/12/05 17:05:06;;;;;;;21.40;13.25;;;4.50;99.90;;;;;;5093620;28;20139;-85
2021/12/05 17:07:44;;;;;;;22.20;13.98;;;4.50;99.90;;;;;;5054550;28;20052;-85
2021/12/05 17:10:35;;;;;;;23.77;14.18;;;4.50;99.90;;;;;;5068256;28;20052;-85
2021/12/05 17:13:26;;;;;;;23.50;14.23;;;4.50;99.90;;;;;;5070504;28;20109;-84
2021/12/05 17:16:27;;;;;;;23.65;14.60;;;4.60;99.90;;;;;;5071085;28;20090;-81
2021/12/05 17:19:08;;;;;;;23.23;14.40;;;4.50;99.90;;;;;;5069908;28;20059;-86
2021/12/05 17:21:38;;;;;;;27.77;16.02;;;4.50;99.90;;;;;;5059673;28;20040;-85
2021/12/05 17:24:12;;;;;;;34.97;16.05;;;4.50;99.90;;;;;;5074975;28;20039;-85
2021/12/05 17:26:44;;;;;;;24.33;17.25;;;4.50;99.90;;;;;;5053192;28;20114;-87
2021/12/05 17:29:19;;;;;;;36.50;17.35;;;4.50;99.90;;;;;;5068859;28;20059;-86
2021/12/05 17:32:04;;;;;;;24.58;14.85;;;4.50;99.90;;;;;;5070574;28;20055;-85
2021/12/05 17:34:37;;;;;;;26.75;17.45;;;4.40;99.90;;;;;;5092485;28;20036;-86
2021/12/05 17:37:06;;;;;;;29.92;17.27;;;4.40;99.90;;;;;;5072109;28;20081;-85
2021/12/05 17:39:50;;;;;;;40.72;20.67;;;4.50;99.90;;;;;;5087486;28;20052;-86
2021/12/05 17:42:21;;;;;;;38.40;22.25;;;4.50;99.90;;;;;;5068739;28;20041;-86
2021/12/05 17:44:51;;;;;;;34.72;23.67;;;4.50;99.90;;;;;;5071405;28;20094;-86
2021/12/05 17:47:17;;;;;;;38.30;25.27;;;4.40;99.90;;;;;;5070745;28;20106;-87
2021/12/05 17:49:45;;;;;;;40.85;23.67;;;4.40;99.90;;;;;;5080155;28;20048;-83
2021/12/05 17:52:14;;;;;;;34.88;24.63;;;4.40;99.90;;;;;;5065857;28;20032;-85
2021/12/05 17:54:51;;;;;;;40.70;27.77;;;4.40;99.90;;;;;;5061239;28;20398;-85
2021/12/05 17:57:23;;;;;;;44.88;27.65;;;4.40;99.90;;;;;;5069352;28;20045;-86
2021/12/05 18:05:08;;;;;;;38.58;27.67;;;4.40;99.90;;;;;;5073394;28;20482;-86
2021/12/05 18:07:34;;;;;;;40.35;29.40;;;4.40;99.90;;;;;;5060181;28;20047;-84
2021/12/05 18:10:00;;;;;;;37.45;24.52;;;4.40;99.90;;;;;;5097560;28;20097;-84
2021/12/05 18:12:34;;;;;;;39.08;27.05;;;4.30;99.90;;;;;;5052626;28;20055;-87
2021/12/05 18:15:09;;;;;;;36.65;24.95;;;4.40;99.90;;;;;;5052158;28;20044;-88
2021/12/05 18:17:36;;;;;;;37.47;25.15;;;4.20;99.90;;;;;;5063171;28;20049;-84
2021/12/05 18:20:03;;;;;;;38.45;25.38;;;4.30;99.90;;;;;;5067926;28;20041;-77
2021/12/05 18:22:31;;;;;;;42.63;28.25;;;4.30;99.90;;;;;;5068093;28;20052;-86
2021/12/05 18:24:57;;;;;;;40.03;26.35;;;4.30;99.90;;;;;;5078775;28;20047;-85
2021/12/05 18:27:23;;;;;;;43.65;27.83;;;4.30;99.90;;;;;;5068214;28;20040;-87
2021/12/05 18:29:48;;;;;;;45.97;27.00;;;4.30;99.90;;;;;;5052013;28;20053;-86
2021/12/05 18:32:15;;;;;;;43.17;27.10;;;4.30;99.90;;;;;;5069833;28;20198;-84
2021/12/05 18:34:41;;;;;;;39.67;28.08;;;4.30;99.90;;;;;;5052656;28;20045;-86